Time;durP1;ratioP1;P1;durP2;ratioP2;P2;SDS_P1;SDS_P2;PMS_P1;PMS_P2;Temp;Humidity;BMP_temperature;BMP_pressure;BME280_temperature;BME280_humidity;BME280_pressure;Samples;Min_cycle;Max_cycle;Signal;HPM_P1;HPM_P2
2021/04/20 00:01:51;;;;;;;57.60;33.60;;;6.90;99.90;;;;;;5028540;28;20450;-75
2021/04/20 00:04:17;;;;;;;59.00;35.60;;;6.90;99.90;;;;;;5029834;28;20076;-75
2021/04/20 00:06:42;;;;;;;52.28;33.05;;;7.00;99.90;;;;;;5029899;28;20517;-75
2021/04/20 00:09:09;;;;;;;60.42;35.22;;;7.00;99.90;;;;;;5029826;28;20021;-75
2021/04/20 00:11:39;;;;;;;54.83;34.45;;;7.00;99.90;;;;;;5029751;28;20038;-75
2021/04/20 00:14:06;;;;;;;51.33;31.85;;;7.00;99.90;;;;;;5029985;28;20029;-75
2021/04/20 00:16:32;;;;;;;56.60;33.28;;;7.00;99.90;;;;;;5029774;28;20391;-75
2021/04/20 00:18:57;;;;;;;56.75;34.92;;;7.00;99.90;;;;;;5028261;28;20026;-75
2021/04/20 00:21:23;;;;;;;61.45;34.67;;;7.00;99.90;;;;;;5029503;28;20041;-75
2021/04/20 00:23:48;;;;;;;53.22;34.10;;;7.00;99.90;;;;;;5029672;28;20509;-76
2021/04/20 00:26:14;;;;;;;56.83;33.08;;;7.00;99.90;;;;;;5029512;28;20041;-75
2021/04/20 00:28:39;;;;;;;59.75;35.22;;;7.00;99.90;;;;;;5029524;28;20028;-75
2021/04/20 00:31:05;;;;;;;52.38;32.85;;;7.00;99.90;;;;;;5028180;28;20037;-75
2021/04/20 00:33:31;;;;;;;57.60;33.35;;;7.00;99.90;;;;;;5029484;28;20026;-75
2021/04/20 00:35:56;;;;;;;56.83;34.22;;;7.00;99.90;;;;;;5029173;28;20509;-75
2021/04/20 00:38:22;;;;;;;60.05;35.28;;;6.90;99.90;;;;;;5028152;28;20048;-76
2021/04/20 00:40:47;;;;;;;61.50;34.72;;;6.90;99.90;;;;;;5029154;28;20487;-75
2021/04/20 00:43:13;;;;;;;56.90;33.97;;;6.90;99.90;;;;;;5029319;28;20391;-75
2021/04/20 00:45:40;;;;;;;50.88;31.42;;;7.00;99.90;;;;;;5029250;28;20049;-75
2021/04/20 00:48:06;;;;;;;59.80;34.67;;;7.00;99.90;;;;;;5029554;28;20022;-76
2021/04/20 00:50:35;;;;;;;54.53;32.72;;;7.00;99.90;;;;;;5046394;22;20386;-76
2021/04/20 00:53:01;;;;;;;55.63;33.67;;;7.00;99.90;;;;;;5027995;28;20034;-76
2021/04/20 00:55:27;;;;;;;52.80;32.95;;;7.00;99.90;;;;;;5028005;28;20025;-76
2021/04/20 00:57:53;;;;;;;62.40;35.45;;;7.00;99.90;;;;;;5028006;28;20026;-76
2021/04/20 01:00:21;;;;;;;56.92;34.20;;;7.00;99.90;;;;;;5028996;28;20029;-74
2021/04/20 01:02:47;;;;;;;56.03;33.55;;;7.00;99.90;;;;;;5029137;28;20482;-75
2021/04/20 01:05:16;;;;;;;62.25;35.30;;;6.90;99.90;;;;;;5029043;28;20068;-76
2021/04/20 01:07:43;;;;;;;60.05;35.50;;;6.90;99.90;;;;;;5027763;28;20120;-74
2021/04/20 01:10:10;;;;;;;62.20;36.65;;;6.90;99.90;;;;;;5027614;28;20030;-75
2021/04/20 01:12:37;;;;;;;56.72;33.22;;;6.90;99.90;;;;;;5028966;28;20029;-75
2021/04/20 01:15:04;;;;;;;63.10;36.88;;;6.90;99.90;;;;;;5027832;28;20092;-76
2021/04/20 01:17:30;;;;;;;61.28;36.17;;;6.90;99.90;;;;;;5027726;28;20034;-75
2021/04/20 01:20:01;;;;;;;57.72;35.45;;;6.90;99.90;;;;;;5029008;28;20396;-75
2021/04/20 01:22:35;;;;;;;61.47;35.20;;;6.90;99.90;;;;;;5029119;28;20013;-75
2021/04/20 01:25:01;;;;;;;61.53;34.80;;;6.90;99.90;;;;;;5027780;28;20029;-75
2021/04/20 01:27:27;;;;;;;56.20;35.15;;;6.90;99.90;;;;;;5027775;28;20115;-75
2021/04/20 01:29:56;;;;;;;58.30;34.45;;;6.90;99.90;;;;;;5028561;28;20083;-75
2021/04/20 01:32:22;;;;;;;64.30;36.72;;;6.90;99.90;;;;;;5031543;28;20017;-75
2021/04/20 01:34:48;;;;;;;62.05;35.25;;;6.90;99.90;;;;;;5032733;28;20021;-75
2021/04/20 01:37:14;;;;;;;62.08;37.88;;;6.90;99.90;;;;;;5032917;28;20516;-75
2021/04/20 01:39:42;;;;;;;61.67;35.22;;;6.90;99.90;;;;;;5032601;28;20032;-74
2021/04/20 01:42:08;;;;;;;58.00;34.22;;;6.90;99.90;;;;;;5032539;28;20467;-74
2021/04/20 01:44:34;;;;;;;57.55;34.88;;;6.90;99.90;;;;;;5032534;28;20056;-74
2021/04/20 01:47:00;;;;;;;57.00;34.92;;;6.90;99.90;;;;;;5032742;28;20022;-74
2021/04/20 01:49:25;;;;;;;57.10;33.53;;;6.80;99.90;;;;;;5031194;28;20159;-74
2021/04/20 01:51:52;;;;;;;60.33;34.95;;;6.90;99.90;;;;;;5031039;28;20399;-74
2021/04/20 01:54:19;;;;;;;58.80;35.35;;;6.90;99.90;;;;;;5032549;28;20026;-74
2021/04/20 01:56:46;;;;;;;57.13;33.67;;;6.90;99.90;;;;;;5031183;28;20025;-75
2021/04/20 01:59:12;;;;;;;56.88;34.83;;;6.90;99.90;;;;;;5032365;28;20030;-75
2021/04/20 02:01:37;;;;;;;58.53;34.25;;;6.90;99.90;;;;;;5030906;28;20083;-74
2021/04/20 02:04:03;;;;;;;61.65;35.13;;;6.90;99.90;;;;;;5032230;28;20021;-75
2021/04/20 02:06:29;;;;;;;58.10;33.90;;;6.90;99.90;;;;;;5032131;28;20483;-74
2021/04/20 02:08:55;;;;;;;60.38;35.30;;;6.90;99.90;;;;;;5030836;28;20035;-74
2021/04/20 02:11:23;;;;;;;58.78;33.95;;;6.90;99.90;;;;;;5031973;28;20396;-74
2021/04/20 02:13:50;;;;;;;55.08;33.05;;;6.90;99.90;;;;;;5032097;28;20018;-74
2021/04/20 02:16:16;;;;;;;53.92;32.80;;;7.00;99.90;;;;;;5031992;28;20121;-74
2021/04/20 02:18:45;;;;;;;57.75;33.80;;;6.90;99.90;;;;;;5032474;28;20018;-74
2021/04/20 02:21:16;;;;;;;55.28;34.40;;;6.90;99.90;;;;;;5032051;28;20502;-74
2021/04/20 02:23:42;;;;;;;60.25;34.42;;;6.90;99.90;;;;;;5031920;28;20029;-74
2021/04/20 02:26:10;;;;;;;64.93;35.45;;;6.90;99.90;;;;;;5030661;28;20063;-74
2021/04/20 02:28:36;;;;;;;58.42;34.53;;;6.90;99.90;;;;;;5031858;28;20058;-74
2021/04/20 02:31:06;;;;;;;57.25;34.15;;;6.90;99.90;;;;;;5032004;28;20037;-74
2021/04/20 02:33:32;;;;;;;62.38;35.53;;;6.80;99.90;;;;;;5031731;28;20022;-74
2021/04/20 02:35:59;;;;;;;53.95;34.17;;;6.80;99.90;;;;;;5030385;28;20029;-74
2021/04/20 02:38:26;;;;;;;59.05;34.97;;;6.80;99.90;;;;;;5030373;28;20029;-75
2021/04/20 02:40:56;;;;;;;62.42;37.15;;;6.70;99.90;;;;;;5031044;28;20030;-74
2021/04/20 02:43:23;;;;;;;62.00;36.13;;;6.70;99.90;;;;;;5029539;28;20021;-74
2021/04/20 02:45:54;;;;;;;62.70;35.13;;;6.70;99.90;;;;;;5032016;28;20021;-75
2021/04/20 02:48:20;;;;;;;61.90;36.20;;;6.70;99.90;;;;;;5030057;28;20022;-75
2021/04/20 02:50:46;;;;;;;59.75;34.47;;;6.70;99.90;;;;;;5031239;28;20033;-75
2021/04/20 02:53:15;;;;;;;61.55;35.60;;;6.70;99.90;;;;;;5031266;28;20032;-75
2021/04/20 02:55:42;;;;;;;61.95;35.60;;;6.70;99.90;;;;;;5031614;28;20030;-75
2021/04/20 02:58:15;;;;;;;62.13;36.85;;;6.60;99.90;;;;;;5030148;28;20029;-75
2021/04/20 03:00:42;;;;;;;;;;;6.50;99.90;;;;;;5030642;28;20121;-74
2021/04/20 03:03:08;;;;;;;62.97;36.60;;;6.40;99.90;;;;;;5031439;28;19905;-75
2021/04/20 03:05:34;;;;;;;60.83;36.40;;;6.30;99.90;;;;;;5031072;28;20022;-75
2021/04/20 03:08:00;;;;;;;68.78;38.33;;;6.20;99.90;;;;;;5029788;28;20017;-75
2021/04/20 03:10:27;;;;;;;69.88;37.30;;;6.00;99.90;;;;;;5029538;28;20033;-75
2021/04/20 03:12:55;;;;;;;65.00;36.80;;;5.90;99.90;;;;;;5029706;28;20029;-75
2021/04/20 03:15:22;;;;;;;70.28;38.45;;;5.80;99.90;;;;;;5029447;28;20084;-75
2021/04/20 03:17:48;;;;;;;70.78;38.75;;;5.70;99.90;;;;;;5030801;28;20029;-75
2021/04/20 03:20:16;;;;;;;67.03;37.38;;;5.70;99.90;;;;;;5029349;28;20029;-75
2021/04/20 03:22:43;;;;;;;67.65;37.55;;;5.60;99.90;;;;;;5029452;28;20021;-75
2021/04/20 03:25:17;;;;;;;67.55;37.50;;;5.50;99.90;;;;;;5031006;28;20021;-75
2021/04/20 03:27:45;;;;;;;65.70;37.03;;;5.40;99.90;;;;;;5029601;28;20035;-75
2021/04/20 03:30:13;;;;;;;67.80;38.25;;;5.30;99.90;;;;;;5030436;28;20025;-74
2021/04/20 03:32:42;;;;;;;70.00;38.50;;;5.30;99.90;;;;;;5030631;28;20025;-75
2021/04/20 03:35:13;;;;;;;67.50;38.03;;;5.30;99.90;;;;;;5030667;28;20030;-74
2021/04/20 03:38:04;;;;;;;71.35;36.30;;;5.30;99.90;;;;;;5030817;28;20031;-74
2021/04/20 03:40:32;;;;;;;72.63;36.20;;;5.20;99.90;;;;;;5028977;28;20035;-74
2021/04/20 03:43:01;;;;;;;65.95;36.30;;;5.10;99.90;;;;;;5029575;28;20037;-74
2021/04/20 03:45:32;;;;;;;68.13;36.65;;;5.10;99.90;;;;;;5030192;28;20483;-74
2021/04/20 03:48:17;;;;;;;69.50;37.47;;;5.00;99.90;;;;;;5029571;28;20030;-74
2021/04/20 03:50:52;;;;;;;67.95;35.42;;;4.90;99.90;;;;;;5030259;28;20029;-74
2021/04/20 03:53:19;;;;;;;64.50;34.53;;;4.80;99.90;;;;;;5030005;28;20030;-74
2021/04/20 03:55:49;;;;;;;68.13;36.45;;;4.80;99.90;;;;;;5030041;28;20029;-74
2021/04/20 03:58:18;;;;;;;68.20;36.80;;;4.70;99.90;;;;;;5028866;28;20026;-74
2021/04/20 04:00:49;;;;;;;72.00;37.20;;;4.70;99.90;;;;;;5030266;28;20390;-74
2021/04/20 04:03:16;;;;;;;80.88;39.47;;;4.70;99.90;;;;;;5030142;28;20067;-74
2021/04/20 04:05:46;;;;;;;77.65;38.63;;;4.80;99.90;;;;;;5033553;28;20089;-74
2021/04/20 04:08:13;;;;;;;78.25;40.42;;;4.80;99.90;;;;;;5032821;28;20032;-74
2021/04/20 04:10:39;;;;;;;83.40;42.20;;;4.90;99.90;;;;;;5034503;28;20030;-74
2021/04/20 04:13:08;;;;;;;86.82;42.65;;;4.90;99.90;;;;;;5035047;28;20051;-74
2021/04/20 04:15:35;;;;;;;87.03;40.88;;;5.00;99.90;;;;;;5030842;28;20486;-74
2021/04/20 04:18:06;;;;;;;85.03;41.25;;;5.10;99.90;;;;;;5030801;28;20524;-74
2021/04/20 04:20:31;;;;;;;87.20;39.53;;;5.10;99.90;;;;;;5030223;28;20093;-74
2021/04/20 04:23:14;;;;;;;93.35;43.88;;;5.20;99.90;;;;;;5030803;28;20029;-74
2021/04/20 04:25:47;;;;;;;64.97;30.40;;;5.30;99.90;;;;;;5031029;28;20021;-74
2021/04/20 04:28:14;;;;;;;82.15;39.00;;;5.40;99.90;;;;;;5031178;28;20478;-75
2021/04/20 04:30:40;;;;;;;83.43;40.38;;;5.50;99.90;;;;;;5030651;28;20068;-74
2021/04/20 04:33:06;;;;;;;83.50;40.50;;;5.60;99.90;;;;;;5029981;28;20053;-74
2021/04/20 04:35:35;;;;;;;87.05;40.17;;;5.60;99.90;;;;;;5028579;28;20053;-75
2021/04/20 04:38:01;;;;;;;84.53;40.78;;;5.70;99.90;;;;;;5029853;28;20399;-74
2021/04/20 04:40:27;;;;;;;74.88;40.15;;;5.80;99.90;;;;;;5028271;28;20056;-74
2021/04/20 04:42:53;;;;;;;77.78;41.42;;;5.80;99.90;;;;;;5028567;28;20032;-74
2021/04/20 04:45:19;;;;;;;74.00;38.72;;;5.90;99.90;;;;;;5029801;28;20037;-74
2021/04/20 04:47:45;;;;;;;78.18;38.97;;;5.90;99.90;;;;;;5028434;28;20018;-74
2021/04/20 04:50:12;;;;;;;70.50;38.63;;;6.00;99.90;;;;;;5028045;28;20033;-75
2021/04/20 04:52:39;;;;;;;77.00;38.00;;;6.00;99.90;;;;;;5029698;28;20076;-74
2021/04/20 04:55:06;;;;;;;70.80;38.15;;;6.10;99.90;;;;;;5028469;28;20030;-74
2021/04/20 04:57:34;;;;;;;69.07;36.13;;;6.10;99.90;;;;;;5029474;28;20394;-74
2021/04/20 05:00:05;;;;;;;68.70;35.75;;;6.20;99.90;;;;;;5029473;28;20029;-74
2021/04/20 05:02:32;;;;;;;65.05;36.30;;;6.20;99.90;;;;;;5029495;28;20513;-74
2021/04/20 05:05:04;;;;;;;69.88;37.33;;;6.20;99.90;;;;;;5030487;28;20029;-74
2021/04/20 05:07:30;;;;;;;64.93;34.92;;;6.30;99.90;;;;;;5032775;28;20371;-74
2021/04/20 05:10:01;;;;;;;65.82;33.67;;;6.30;99.90;;;;;;5033692;28;20029;-74
2021/04/20 05:12:27;;;;;;;57.42;32.88;;;6.40;99.90;;;;;;5033606;28;20022;-74
2021/04/20 05:14:54;;;;;;;62.15;33.78;;;6.50;99.90;;;;;;5033382;28;20105;-74
2021/04/20 05:17:23;;;;;;;61.97;33.70;;;6.50;99.90;;;;;;5032163;28;20048;-74
2021/04/20 05:19:51;;;;;;;57.17;31.45;;;6.50;99.90;;;;;;5033142;28;20565;-74
2021/04/20 05:22:17;;;;;;;60.47;34.05;;;6.60;99.90;;;;;;5033249;28;20057;-74
2021/04/20 05:24:42;;;;;;;56.22;32.08;;;6.70;99.90;;;;;;5033163;28;20036;-74
2021/04/20 05:27:10;;;;;;;55.45;31.30;;;6.70;99.90;;;;;;5033081;28;20029;-74
2021/04/20 05:29:37;;;;;;;55.72;31.95;;;6.80;99.90;;;;;;5032956;28;20022;-74
2021/04/20 05:32:03;;;;;;;52.97;31.90;;;6.90;99.90;;;;;;5033023;28;20081;-74
2021/04/20 05:34:29;;;;;;;51.33;30.55;;;7.00;99.90;;;;;;5032959;28;20104;-74
2021/04/20 05:36:55;;;;;;;55.08;31.55;;;7.10;99.90;;;;;;5033105;28;20183;-74
2021/04/20 05:39:21;;;;;;;50.08;30.52;;;7.10;99.90;;;;;;5031521;28;20513;-74
2021/04/20 05:41:47;;;;;;;52.80;31.27;;;7.10;99.90;;;;;;5032580;28;20032;-74
2021/04/20 05:44:13;;;;;;;48.38;29.42;;;7.20;99.90;;;;;;5032703;28;20096;-74
2021/04/20 05:46:42;;;;;;;51.80;31.50;;;7.30;99.90;;;;;;5031390;28;20479;-74
2021/04/20 05:49:08;;;;;;;45.80;28.65;;;7.30;99.90;;;;;;5031418;28;20061;-74
2021/04/20 05:51:35;;;;;;;52.67;30.65;;;7.40;99.90;;;;;;5032326;28;20053;-74
2021/04/20 05:54:01;;;;;;;50.60;31.42;;;7.40;99.90;;;;;;5031378;28;20395;-74
2021/04/20 05:56:27;;;;;;;46.08;29.35;;;7.50;99.90;;;;;;5031119;28;20028;-74
2021/04/20 05:58:59;;;;;;;48.33;30.23;;;7.50;99.90;;;;;;5031061;28;20025;-74
2021/04/20 06:01:26;;;;;;;49.88;29.20;;;7.50;99.90;;;;;;5030842;28;20025;-74
2021/04/20 06:03:53;;;;;;;51.88;30.23;;;7.50;99.90;;;;;;5032294;28;20063;-74
2021/04/20 06:06:22;;;;;;;50.30;31.85;;;7.60;99.90;;;;;;5030870;28;20026;-73
2021/04/20 06:08:50;;;;;;;47.58;29.45;;;7.70;99.90;;;;;;5031217;28;20068;-74
2021/04/20 06:11:18;;;;;;;51.25;30.48;;;7.70;99.90;;;;;;5032144;28;20433;-74
2021/04/20 06:13:45;;;;;;;54.55;31.92;;;7.70;99.90;;;;;;5030861;28;20072;-74
2021/04/20 06:16:10;;;;;;;55.55;32.17;;;7.70;99.90;;;;;;5030618;28;20034;-74
2021/04/20 06:18:38;;;;;;;49.17;30.50;;;7.70;99.90;;;;;;5032597;28;20037;-74
2021/04/20 06:21:06;;;;;;;53.50;31.23;;;7.70;99.90;;;;;;5030594;28;20022;-74
2021/04/20 06:23:33;;;;;;;55.47;32.50;;;7.70;99.90;;;;;;5030756;28;20026;-74
2021/04/20 06:26:01;;;;;;;51.70;32.35;;;7.80;99.90;;;;;;5030725;28;20130;-74
2021/04/20 06:28:27;;;;;;;50.25;30.55;;;7.80;99.90;;;;;;5030600;28;20037;-74
2021/04/20 06:31:02;;;;;;;49.08;30.50;;;7.80;99.90;;;;;;5031829;28;20032;-74
2021/04/20 06:33:30;;;;;;;49.55;29.92;;;7.90;99.90;;;;;;5030598;28;20142;-74
2021/04/20 06:35:56;;;;;;;46.65;29.50;;;8.00;99.90;;;;;;5032032;28;20025;-74
2021/04/20 06:38:22;;;;;;;49.03;31.00;;;8.10;99.90;;;;;;5030444;28;20059;-74
2021/04/20 06:40:52;;;;;;;49.97;30.63;;;8.10;99.90;;;;;;5030291;28;20026;-75
2021/04/20 06:43:28;;;;;;;49.85;30.65;;;8.10;99.90;;;;;;5030431;28;20029;-75
2021/04/20 06:46:00;;;;;;;46.55;29.95;;;8.10;99.90;;;;;;5031976;28;20026;-75
2021/04/20 06:48:37;;;;;;;47.97;29.75;;;8.10;99.90;;;;;;5031924;28;20100;-74
2021/04/20 06:51:37;;;;;;;50.90;30.33;;;8.20;99.90;;;;;;5055252;22;20044;-75
2021/04/20 06:54:08;;;;;;;50.08;30.30;;;8.20;99.90;;;;;;5030095;28;20032;-75
2021/04/20 06:56:50;;;;;;;51.38;30.83;;;8.20;99.90;;;;;;5029847;28;20032;-73
2021/04/20 06:59:38;;;;;;;53.15;31.02;;;8.20;99.90;;;;;;5030291;28;20025;-74
2021/04/20 07:02:19;;;;;;;49.83;30.88;;;8.30;99.90;;;;;;5030050;28;20079;-75
2021/04/20 07:04:56;;;;;;;54.50;33.00;;;8.30;99.90;;;;;;5031367;28;20052;-75
2021/04/20 07:07:30;;;;;;;53.33;31.48;;;8.30;99.90;;;;;;5031352;28;20552;-75
2021/04/20 07:10:20;;;;;;;51.90;31.67;;;8.40;99.90;;;;;;5030176;28;20029;-75
2021/04/20 07:12:48;;;;;;;50.65;30.63;;;8.60;99.90;;;;;;5030011;28;20598;-74
2021/04/20 07:15:20;;;;;;;48.78;29.13;;;8.80;99.90;;;;;;5031228;28;20486;-75
2021/04/20 07:18:03;;;;;;;36.63;23.13;;;9.00;99.90;;;;;;5030157;28;20109;-74
2021/04/20 07:20:54;;;;;;;49.75;29.33;;;9.20;99.90;;;;;;5031755;28;20048;-74
2021/04/20 07:23:54;;;;;;;45.50;28.52;;;9.40;99.90;;;;;;5031127;28;20060;-74
2021/04/20 07:26:36;;;;;;;41.63;27.65;;;9.60;99.90;;;;;;5031148;28;20026;-73
2021/04/20 07:29:29;;;;;;;41.97;27.35;;;9.90;99.90;;;;;;5029055;28;20022;-75
2021/04/20 07:32:22;;;;;;;39.72;25.90;;;10.10;99.90;;;;;;5030883;28;20088;-75
2021/04/20 07:35:12;;;;;;;39.40;27.20;;;10.20;99.90;;;;;;5030939;28;20028;-74
2021/04/20 07:37:40;;;;;;;41.25;27.17;;;10.30;99.90;;;;;;5029659;28;20487;-76
2021/04/20 07:40:43;;;;;;;38.08;25.65;;;10.40;99.90;;;;;;5030953;28;20471;-75
2021/04/20 07:43:37;;;;;;;41.25;26.15;;;10.60;99.90;;;;;;5030566;28;20021;-75
2021/04/20 07:46:15;;;;;;;39.70;25.00;;;10.70;99.90;;;;;;5030712;28;20495;-75
2021/04/20 07:49:03;;;;;;;39.30;25.48;;;10.80;99.90;;;;;;5030545;28;20056;-76
2021/04/20 07:52:06;;;;;;;38.05;25.63;;;10.80;99.90;;;;;;5030560;28;20052;-75
2021/04/20 07:54:54;;;;;;;40.63;25.95;;;10.80;99.90;;;;;;5029217;28;20056;-75
2021/04/20 07:57:27;;;;;;;41.13;27.08;;;10.90;99.90;;;;;;5029153;28;20044;-75
2021/04/20 07:59:53;;;;;;;43.42;26.85;;;11.00;99.90;;;;;;5030431;28;20504;-75
2021/04/20 08:02:30;;;;;;;36.03;25.20;;;11.00;99.90;;;;;;5030196;28;20049;-75
2021/04/20 08:05:16;;;;;;;43.72;26.08;;;11.30;99.90;;;;;;5028935;28;20032;-76
2021/04/20 08:07:51;;;;;;;41.78;26.20;;;11.30;99.90;;;;;;5028565;28;20025;-74
2021/04/20 08:10:18;;;;;;;39.47;26.08;;;11.30;99.90;;;;;;5028969;28;20375;-75
2021/04/20 08:13:01;;;;;;;36.72;23.95;;;11.90;99.90;;;;;;5030240;28;20030;-74
2021/04/20 08:15:59;;;;;;;33.92;24.60;;;12.60;99.90;;;;;;5028846;28;20107;-75
2021/04/20 08:19:10;;;;;;;37.50;24.77;;;13.30;99.90;;;;;;5018035;28;20069;-74
2021/04/20 08:21:43;;;;;;;35.15;23.90;;;13.50;99.90;;;;;;4969101;28;20089;-74
2021/04/20 08:24:15;;;;;;;33.05;22.48;;;13.60;99.90;;;;;;4969617;28;20123;-75
2021/04/20 08:26:48;;;;;;;33.88;24.38;;;13.50;99.90;;;;;;4998260;28;20040;-75
2021/04/20 08:29:22;;;;;;;31.40;22.92;;;13.30;99.90;;;;;;5028646;28;20025;-72
2021/04/20 08:32:25;;;;;;;33.22;22.80;;;13.30;99.90;;;;;;5028615;28;20445;-73
2021/04/20 08:35:08;;;;;;;31.73;21.55;;;13.30;99.90;;;;;;4969295;28;20480;-73
2021/04/20 08:37:45;;;;;;;32.97;22.38;;;13.20;99.90;;;;;;5024646;28;20045;-73
2021/04/20 08:40:26;;;;;;;29.67;21.13;;;13.10;99.90;;;;;;5029831;28;20036;-73
2021/04/20 08:43:09;;;;;;;30.92;21.38;;;13.10;99.90;;;;;;5029787;28;20033;-73
2021/04/20 08:45:59;;;;;;;29.92;21.35;;;13.00;99.90;;;;;;5028398;28;20525;-75
2021/04/20 08:48:35;;;;;;;29.92;21.45;;;13.50;99.90;;;;;;5028324;28;20060;-76
2021/04/20 08:51:16;;;;;;;31.55;22.17;;;13.80;99.90;;;;;;5029649;28;20029;-72
2021/04/20 08:53:58;;;;;;;30.38;21.30;;;14.00;99.90;;;;;;5029548;28;20032;-72
2021/04/20 08:56:46;;;;;;;31.23;21.02;;;14.60;99.90;;;;;;5028551;28;20025;-72
2021/04/20 08:59:33;;;;;;;25.70;19.63;;;14.70;99.90;;;;;;5029816;28;20478;-72
2021/04/20 09:02:21;;;;;;;30.30;21.02;;;14.90;99.90;;;;;;5029458;28;20144;-73
2021/04/20 09:05:05;;;;;;;30.10;21.63;;;14.80;99.90;;;;;;5030106;28;20028;-73
2021/04/20 09:07:50;;;;;;;28.27;21.63;;;14.60;99.90;;;;;;5040255;28;20013;-72
2021/04/20 09:10:18;;;;;;;29.45;21.50;;;14.30;99.90;;;;;;5034948;28;20049;-73
2021/04/20 09:12:45;;;;;;;25.38;19.58;;;14.50;99.90;;;;;;5028599;28;20029;-73
2021/04/20 09:15:16;;;;;;;27.02;19.73;;;14.30;99.90;;;;;;5030948;28;20021;-73
2021/04/20 09:17:49;;;;;;;28.30;19.17;;;14.40;99.90;;;;;;5029731;28;20061;-73
2021/04/20 09:20:23;;;;;;;25.88;18.73;;;15.00;99.90;;;;;;5028287;28;20030;-73
2021/04/20 09:22:58;;;;;;;25.95;16.80;;;16.00;99.90;;;;;;5028530;28;20487;-74
2021/04/20 09:25:48;;;;;;;23.80;17.65;;;16.80;99.90;;;;;;5029378;28;20116;-74
2021/04/20 09:28:18;;;;;;;25.17;18.55;;;18.00;99.90;;;;;;5029345;28;20075;-74
2021/04/20 09:30:49;;;;;;;23.30;17.92;;;18.80;95.80;;;;;;5027840;28;20043;-75
2021/04/20 09:33:20;;;;;;;24.13;17.65;;;18.80;91.50;;;;;;5028174;28;20041;-75
2021/04/20 09:35:47;;;;;;;23.27;17.30;;;18.70;90.90;;;;;;5029476;28;20053;-74
2021/04/20 09:38:14;;;;;;;23.13;18.80;;;20.40;83.60;;;;;;5029320;28;20021;-74
2021/04/20 09:40:41;;;;;;;26.20;19.25;;;21.70;69.90;;;;;;5029352;28;20382;-74
2021/04/20 09:43:32;;;;;;;22.88;19.30;;;21.70;66.50;;;;;;5029042;28;20022;-74
2021/04/20 09:46:17;;;;;;;22.98;18.20;;;21.30;65.30;;;;;;5021661;28;20029;-75
2021/04/20 09:49:25;;;;;;;21.30;16.55;;;21.20;68.70;;;;;;5029115;28;20030;-74
2021/04/20 09:51:55;;;;;;;20.23;16.67;;;21.80;66.50;;;;;;5002346;28;20406;-75
2021/04/20 09:54:36;;;;;;;18.35;15.93;;;23.40;57.60;;;;;;5032960;28;20034;-75
2021/04/20 09:57:07;;;;;;;23.38;18.13;;;23.80;55.30;;;;;;5031419;28;20025;-75
2021/04/20 09:59:53;;;;;;;21.48;17.35;;;22.50;57.90;;;;;;5033091;28;20026;-75
2021/04/20 10:02:48;;;;;;;22.45;17.85;;;22.00;59.40;;;;;;5032450;28;20018;-75
2021/04/20 10:05:49;;;;;;;24.13;18.17;;;21.20;61.40;;;;;;5031206;28;20022;-75
2021/04/20 10:08:49;;;;;;;22.65;18.23;;;20.80;62.50;;;;;;5031606;28;20112;-72
2021/04/20 10:11:48;;;;;;;20.35;17.10;;;20.30;65.10;;;;;;5031368;28;20041;-74
2021/04/20 10:14:35;;;;;;;22.83;17.42;;;20.40;64.20;;;;;;5022229;28;20045;-75
2021/04/20 10:17:16;;;;;;;18.67;16.35;;;20.50;63.60;;;;;;5032471;28;20025;-75
2021/04/20 10:19:53;;;;;;;21.52;16.77;;;20.30;62.90;;;;;;5030957;28;20482;-72
2021/04/20 10:22:37;;;;;;;20.55;17.17;;;20.60;62.10;;;;;;5030799;28;20120;-74
2021/04/20 10:25:14;;;;;;;22.35;15.95;;;21.70;58.50;;;;;;5032406;28;20494;-72
2021/04/20 10:27:43;;;;;;;20.70;17.30;;;24.00;51.70;;;;;;5032204;28;20069;-73
2021/04/20 10:30:22;;;;;;;18.30;15.40;;;25.20;49.80;;;;;;5032080;28;20521;-74
2021/04/20 10:32:52;;;;;;;17.98;15.95;;;25.00;48.00;;;;;;5032044;28;20093;-74
2021/04/20 10:35:21;;;;;;;20.85;18.20;;;24.50;49.60;;;;;;5032282;28;20593;-75
2021/04/20 10:37:51;;;;;;;20.10;17.23;;;23.90;51.20;;;;;;5031984;28;20494;-75
2021/04/20 10:40:29;;;;;;;19.60;17.23;;;25.10;48.00;;;;;;5031777;28;20055;-75
2021/04/20 10:42:55;;;;;;;20.45;18.25;;;27.20;45.50;;;;;;5031794;28;20490;-74
2021/04/20 10:45:27;;;;;;;19.23;17.05;;;27.00;43.30;;;;;;5031669;28;20059;-74
2021/04/20 10:47:56;;;;;;;20.35;17.77;;;25.70;45.90;;;;;;5030467;28;20025;-75
2021/04/20 10:50:27;;;;;;;19.92;17.35;;;23.70;50.50;;;;;;5030612;28;20123;-74
2021/04/20 10:53:14;;;;;;;20.83;18.38;;;22.50;53.00;;;;;;5031387;28;20043;-75
2021/04/20 10:55:48;;;;;;;19.88;17.77;;;21.20;54.30;;;;;;5030273;28;20037;-74
2021/04/20 10:58:21;;;;;;;20.42;16.75;;;19.70;57.70;;;;;;5030249;28;20025;-73
2021/04/20 11:00:50;;;;;;;22.40;18.55;;;20.30;59.00;;;;;;5031539;28;20084;-74
2021/04/20 11:03:23;;;;;;;21.42;17.63;;;22.30;54.50;;;;;;5030184;28;20474;-74
2021/04/20 11:05:50;;;;;;;20.02;17.40;;;22.60;52.70;;;;;;5030130;28;20032;-74
2021/04/20 11:08:36;;;;;;;20.85;17.95;;;21.90;53.90;;;;;;5029948;28;20025;-74
2021/04/20 11:11:03;;;;;;;23.05;19.77;;;20.90;58.20;;;;;;5029978;28;20029;-74
2021/04/20 11:13:38;;;;;;;23.05;19.67;;;20.20;60.20;;;;;;5031246;28;20052;-74
2021/04/20 11:16:11;;;;;;;22.65;19.38;;;19.60;63.60;;;;;;5029808;28;20025;-74
2021/04/20 11:18:40;;;;;;;25.98;19.75;;;19.50;63.00;;;;;;5029843;28;20116;-74
2021/04/20 11:21:18;;;;;;;20.17;17.98;;;20.10;61.70;;;;;;5030893;28;20029;-74
2021/04/20 11:23:53;;;;;;;22.27;18.83;;;20.90;59.80;;;;;;5029778;28;20033;-74
2021/04/20 11:26:23;;;;;;;21.85;19.13;;;21.40;59.20;;;;;;5030941;28;20061;-74
2021/04/20 11:28:53;;;;;;;21.33;18.63;;;21.40;57.00;;;;;;5030072;28;20116;-74
2021/04/20 11:31:18;;;;;;;19.40;17.23;;;21.70;57.40;;;;;;5029565;28;20407;-74
2021/04/20 11:33:56;;;;;;;23.17;19.38;;;22.40;56.80;;;;;;5030728;28;20033;-74
2021/04/20 11:36:25;;;;;;;19.92;16.50;;;23.80;51.30;;;;;;5029366;28;20450;-74
2021/04/20 11:39:03;;;;;;;18.83;16.25;;;24.90;48.70;;;;;;5030783;28;20030;-75
2021/04/20 11:42:06;;;;;;;18.55;16.27;;;26.40;45.50;;;;;;5029263;28;20438;-74
2021/04/20 11:44:51;;;;;;;19.33;17.27;;;25.20;45.10;;;;;;5029232;28;20458;-75
2021/04/20 11:47:17;;;;;;;19.88;17.60;;;23.50;51.00;;;;;;5029277;28;20072;-74
2021/04/20 11:50:09;;;;;;;21.25;18.10;;;21.80;53.60;;;;;;5030698;28;20079;-74
2021/04/20 11:52:35;;;;;;;22.48;18.08;;;20.50;55.80;;;;;;5030311;28;20106;-73
2021/04/20 11:55:07;;;;;;;25.75;20.35;;;19.20;59.40;;;;;;5029137;28;20026;-73
2021/04/20 11:57:35;;;;;;;24.33;19.45;;;18.40;61.10;;;;;;5030407;28;20021;-73
2021/04/20 12:00:06;;;;;;;23.42;19.33;;;17.60;64.20;;;;;;5029108;28;20025;-73
2021/04/20 12:02:36;;;;;;;27.67;20.73;;;17.20;66.60;;;;;;5030209;28;20087;-75
2021/04/20 12:05:04;;;;;;;24.83;19.02;;;16.90;68.60;;;;;;5030219;28;20109;-73
2021/04/20 12:07:32;;;;;;;28.13;21.73;;;16.70;69.70;;;;;;5030147;28;20552;-75
2021/04/20 12:09:59;;;;;;;25.75;19.98;;;16.30;72.50;;;;;;5030489;28;20114;-75
2021/04/20 12:12:29;;;;;;;26.77;20.15;;;16.30;73.30;;;;;;5030250;28;20022;-74
2021/04/20 12:14:55;;;;;;;25.58;19.17;;;16.10;73.40;;;;;;5030131;28;20022;-74
2021/04/20 12:17:38;;;;;;;25.10;19.45;;;16.00;75.60;;;;;;5030245;28;20030;-75
2021/04/20 12:20:14;;;;;;;27.75;21.05;;;16.00;75.70;;;;;;5030306;28;20125;-74
2021/04/20 12:22:40;;;;;;;26.38;19.67;;;15.90;76.20;;;;;;5030148;28;20033;-74
2021/04/20 12:25:07;;;;;;;28.35;21.08;;;15.90;75.40;;;;;;5030234;28;20389;-74
2021/04/20 12:27:34;;;;;;;26.17;20.55;;;16.20;74.80;;;;;;5029778;28;20021;-74
2021/04/20 12:30:03;;;;;;;26.85;18.80;;;16.50;73.00;;;;;;5028615;28;20029;-75
2021/04/20 12:32:31;;;;;;;21.95;17.00;;;17.10;71.40;;;;;;5028489;28;20028;-73
2021/04/20 12:34:59;;;;;;;22.80;17.45;;;17.50;69.40;;;;;;5028549;28;20048;-73
2021/04/20 12:37:27;;;;;;;23.10;17.77;;;17.90;68.00;;;;;;5028498;28;20529;-74
2021/04/20 12:40:15;;;;;;;23.77;17.98;;;19.10;65.60;;;;;;5029675;28;20494;-74
2021/04/20 12:42:52;;;;;;;20.13;16.65;;;21.90;56.40;;;;;;5028535;28;20068;-74
2021/04/20 12:45:26;;;;;;;18.60;15.13;;;24.70;49.80;;;;;;5029666;28;20013;-74
2021/04/20 12:47:55;;;;;;;13.68;12.27;;;27.90;42.30;;;;;;5029873;28;20017;-74
2021/04/20 12:50:27;;;;;;;17.83;15.95;;;30.00;36.70;;;;;;5029531;28;20052;-75
2021/04/20 12:52:53;;;;;;;17.13;15.43;;;31.20;35.60;;;;;;5029349;28;20029;-75
2021/04/20 12:55:24;;;;;;;15.07;13.48;;;32.70;33.10;;;;;;5029615;28;20036;-75
2021/04/20 12:57:51;;;;;;;12.85;11.55;;;33.30;30.00;;;;;;5029663;28;20375;-75
2021/04/20 13:00:22;;;;;;;18.20;15.98;;;32.30;31.50;;;;;;5029211;28;20079;-74